Poznan, Poland
Current Conditions -  °F | °C
As of 11:30 AM on Thursday 27 Nov 2014 (Local Time) from EPPO Reporting Station
Haze Haze  
Wind Chill: 27°   Ceiling: 800
Heat Index: 36°   Visibility: 3mi
Dew Point: 32°   Wind: 14mph
Humidity: 87%   Direction: 120°ESE
Pressure: 30.15"   Gusts: NA
Location:  52.4°N, 16.9°E
Report Text: EPPO 270930Z 12012KT 5000 BR BKN008 02/00 Q1021
Loading
Personal Weather Stations






























Interactive Weather Map New forecast layout! Learn more

10-Day Weather Forecast

Advertisements
Track Severe Weather on mobile